Time;durP1;ratioP1;P1;durP2;ratioP2;P2;SDS_P1;SDS_P2;PMS_P1;PMS_P2;Temp;Humidity;BMP_temperature;BMP_pressure;BME280_temperature;BME280_humidity;BME280_pressure;Samples;Min_cycle;Max_cycle;Signal;HPM_P1;HPM_P2
2024/01/18 00:03:10;;;;;;;7.10;6.40;;;;;;;10.77;50.31;96872.06;10360927;28;20044;-51
2024/01/18 00:08:09;;;;;;;8.70;6.95;;;;;;;10.79;49.93;96878.09;10360094;28;20411;-48
2024/01/18 00:13:08;;;;;;;6.93;6.15;;;;;;;10.75;50.06;96865.19;10360449;28;20032;-48
2024/01/18 00:18:07;;;;;;;6.82;6.18;;;;;;;9.72;50.16;96704.28;10360265;28;20115;-49
2024/01/18 00:23:06;;;;;;;;;;;;;;;10.87;50.02;96874.50;10360686;28;20065;-48
2024/01/18 00:28:05;;;;;;;8.73;6.03;;;;;;;10.91;49.42;96861.50;10360331;28;20366;-49
2024/01/18 00:33:04;;;;;;;6.95;6.25;;;;;;;10.88;49.75;96856.34;10361004;28;20061;-48
2024/01/18 00:38:04;;;;;;;7.05;6.35;;;;;;;10.77;49.97;96840.06;10359507;28;20063;-50
2024/01/18 00:43:03;;;;;;;;;;;;;;;10.88;49.89;96855.50;10360811;28;20084;-50
2024/01/18 00:48:02;;;;;;;6.87;6.23;;;;;;;10.97;49.62;96860.53;10359867;28;20458;-49
2024/01/18 00:53:01;;;;;;;7.35;6.72;;;;;;;10.95;49.90;96863.16;10360395;28;20068;-52
2024/01/18 00:58:00;;;;;;;7.05;5.93;;;;;;;10.89;50.01;96845.09;10360378;28;20039;-49
2024/01/18 01:02:59;;;;;;;6.82;5.60;;;;;;;11.03;49.69;96850.03;10360864;28;20061;-48
2024/01/18 01:07:58;;;;;;;6.70;6.10;;;;;;;10.93;50.06;96818.19;10358539;28;20036;-50
2024/01/18 01:12:57;;;;;;;7.28;6.38;;;;;;;10.98;49.67;96829.34;10361200;28;20037;-50
2024/01/18 01:17:56;;;;;;;6.90;6.18;;;;;;;11.04;49.80;96816.28;10365686;28;20108;-48
2024/01/18 01:22:56;;;;;;;6.43;5.70;;;;;;;10.79;49.81;96768.25;10368409;28;20125;-49
2024/01/18 01:27:55;;;;;;;6.47;5.65;;;;;;;11.02;49.84;96806.81;10367225;28;20730;-50
2024/01/18 01:32:54;;;;;;;6.35;5.55;;;;;;;11.06;50.89;96805.00;10368151;28;20891;-48
2024/01/18 01:37:53;;;;;;;7.10;6.40;;;;;;;10.69;49.68;96722.59;10367630;28;20463;-51
2024/01/18 01:42:52;;;;;;;7.28;6.43;;;;;;;10.95;50.29;96759.31;10366950;28;20458;-50
2024/01/18 01:47:51;;;;;;;6.57;5.97;;;;;;;11.03;50.30;96749.66;10365253;28;20132;-50
2024/01/18 01:52:50;;;;;;;6.63;5.75;;;;;;;10.95;51.10;96728.19;10365656;28;20517;-48
2024/01/18 01:57:49;;;;;;;;;;;;;;;11.22;51.51;96746.69;10366753;28;20057;-49
2024/01/18 02:02:49;;;;;;;6.22;5.30;;;;;;;11.19;51.60;96736.38;10366497;28;19916;-48
2024/01/18 02:07:48;;;;;;;7.10;6.50;;;;;;;11.03;52.10;96705.53;10381717;28;20065;-49
2024/01/18 02:12:48;;;;;;;7.10;6.00;;;;;;;11.09;52.81;96707.16;10366220;28;20069;-49
2024/01/18 02:17:47;;;;;;;6.68;6.07;;;;;;;10.10;53.84;96546.47;10365712;28;20451;-48
2024/01/18 02:22:47;;;;;;;6.72;6.10;;;;;;;11.22;55.07;96741.50;10365605;28;20398;-49
2024/01/18 02:27:46;;;;;;;6.95;6.35;;;;;;;11.21;55.71;96724.22;10365293;28;20139;-49
2024/01/18 02:32:45;;;;;;;7.43;6.25;;;;;;;10.91;56.20;96687.59;10365561;28;20199;-48
2024/01/18 02:37:44;;;;;;;7.20;6.50;;;;;;;11.07;57.01;96741.81;10365230;28;20455;-51
2024/01/18 02:42:43;;;;;;;;;;;;;;;10.99;57.63;96737.63;10365585;28;20072;-49
2024/01/18 02:47:42;;;;;;;7.57;6.80;;;;;;;10.90;58.05;96721.38;10365149;28;20015;-48
2024/01/18 02:52:41;;;;;;;6.55;5.95;;;;;;;10.91;58.25;96729.13;10364773;28;20131;-49
2024/01/18 02:57:41;;;;;;;6.78;6.13;;;;;;;10.73;58.89;96706.06;10363949;28;20031;-50
2024/01/18 03:02:40;;;;;;;7.90;7.10;;;;;;;10.98;57.94;96717.72;10363970;28;20071;-49
2024/01/18 03:07:39;;;;;;;6.78;6.18;;;;;;;10.87;58.83;96695.44;10364136;28;20029;-49
2024/01/18 03:12:39;;;;;;;8.85;6.80;;;;;;;10.90;58.79;96677.25;10363571;28;20417;-49
2024/01/18 03:17:38;;;;;;;8.07;5.63;;;;;;;11.01;58.13;96691.72;10363822;28;20063;-49
2024/01/18 03:22:40;;;;;;;6.85;6.15;;;;;;;10.94;58.58;96692.72;10362488;28;20088;-48
2024/01/18 03:27:39;;;;;;;5.45;4.95;;;;;;;11.04;58.45;96663.09;10363141;28;20071;-50
2024/01/18 03:32:38;;;;;;;7.10;6.43;;;;;;;10.94;58.30;96646.00;10361999;28;20056;-48
2024/01/18 03:37:37;;;;;;;8.52;6.50;;;;;;;10.54;59.86;96566.34;10362800;28;20028;-49
2024/01/18 03:42:41;;;;;;;6.97;6.20;;;;;;;10.88;59.86;96621.91;10359982;28;20032;-48
2024/01/18 03:47:40;;;;;;;5.47;4.97;;;;;;;10.15;59.06;96479.81;10361418;28;20149;-49
2024/01/18 03:52:39;;;;;;;6.40;5.80;;;;;;;11.22;58.65;96661.00;10362283;28;20116;-48
2024/01/18 03:57:39;;;;;;;6.47;5.93;;;;;;;10.23;58.38;96492.63;10361583;28;20033;-51
2024/01/18 04:02:38;;;;;;;6.95;6.13;;;;;;;11.25;58.57;96659.19;10361667;28;20072;-51
2024/01/18 04:07:38;;;;;;;;;;;;;;;10.62;58.00;96522.94;10362693;28;20116;-48
2024/01/18 04:12:37;;;;;;;6.50;5.90;;;;;;;11.47;58.51;96627.56;10361803;28;19958;-49
2024/01/18 04:17:37;;;;;;;6.93;5.30;;;;;;;11.42;58.78;96621.63;10360989;28;20067;-48
2024/01/18 04:22:36;;;;;;;6.18;5.50;;;;;;;11.48;57.87;96607.63;10360895;28;20079;-49
2024/01/18 04:27:35;;;;;;;5.88;5.32;;;;;;;11.31;57.75;96577.69;10360756;28;20068;-50
2024/01/18 04:32:34;;;;;;;5.80;4.95;;;;;;;11.70;57.54;96608.00;10361154;28;20064;-48
2024/01/18 04:37:33;;;;;;;6.43;5.82;;;;;;;11.91;57.31;96628.25;10360800;28;20029;-51
2024/01/18 04:42:33;;;;;;;5.95;5.40;;;;;;;11.83;57.44;96625.84;10360117;28;20065;-50
2024/01/18 04:47:32;;;;;;;6.10;5.50;;;;;;;11.88;57.15;96644.78;10359574;28;20136;-50
2024/01/18 04:52:32;;;;;;;5.93;5.43;;;;;;;12.14;56.35;96645.91;10365593;28;20061;-48
2024/01/18 04:57:32;;;;;;;8.50;6.15;;;;;;;12.30;56.07;96634.25;10368232;28;20064;-50
2024/01/18 05:02:31;;;;;;;6.05;5.55;;;;;;;12.41;55.45;96622.69;10367834;28;20063;-49
2024/01/18 05:07:30;;;;;;;5.82;5.43;;;;;;;12.43;55.42;96642.56;10366933;28;20032;-49
2024/01/18 05:12:29;;;;;;;5.90;5.40;;;;;;;12.45;55.25;96643.38;10368562;28;20060;-46
2024/01/18 05:17:34;;;;;;;5.60;5.18;;;;;;;12.49;55.15;96639.81;10368610;28;20466;-48
2024/01/18 05:22:34;;;;;;;5.72;5.13;;;;;;;12.49;55.35;96647.63;10367030;28;20080;-49
2024/01/18 05:27:33;;;;;;;6.97;5.35;;;;;;;12.55;55.11;96644.00;10367776;28;20115;-48
2024/01/18 05:32:33;;;;;;;7.32;6.07;;;;;;;12.66;54.63;96641.97;10367033;28;20825;-47
2024/01/18 05:37:32;;;;;;;5.78;5.30;;;;;;;12.00;54.90;96564.78;10363023;28;20728;-49
2024/01/18 05:42:31;;;;;;;6.93;6.43;;;;;;;12.47;54.81;96632.94;10367165;28;20442;-49
2024/01/18 05:47:30;;;;;;;6.70;6.07;;;;;;;12.60;54.39;96636.06;10367221;28;20041;-47
2024/01/18 05:52:29;;;;;;;6.60;6.10;;;;;;;12.29;54.67;96590.91;10364394;28;20116;-50
2024/01/18 05:57:28;;;;;;;7.13;6.10;;;;;;;12.31;54.84;96614.28;10366534;28;20116;-49
2024/01/18 06:02:27;;;;;;;6.32;5.82;;;;;;;12.68;54.30;96636.72;10365249;28;20124;-48
2024/01/18 06:07:26;;;;;;;6.47;5.95;;;;;;;12.51;54.47;96613.78;10360795;28;20055;-53
2024/01/18 06:12:25;;;;;;;6.43;5.75;;;;;;;12.18;54.67;96547.84;10366985;28;20450;-53
2024/01/18 06:17:24;;;;;;;5.80;5.20;;;;;;;12.43;54.89;96595.75;10365818;28;20387;-48
2024/01/18 06:22:23;;;;;;;5.80;5.40;;;;;;;12.37;55.00;96574.22;10364577;28;20061;-49
2024/01/18 06:27:22;;;;;;;6.00;5.50;;;;;;;12.49;54.48;96576.53;10365438;28;20064;-47
2024/01/18 06:32:21;;;;;;;6.20;5.60;;;;;;;10.92;54.66;96312.97;10362839;28;20041;-48
2024/01/18 06:37:20;;;;;;;5.80;5.28;;;;;;;11.54;54.67;96415.25;10364905;28;20417;-49
2024/01/18 06:42:19;;;;;;;6.50;5.90;;;;;;;11.62;54.38;96410.72;10364520;28;20033;-51
2024/01/18 06:47:18;;;;;;;6.28;5.68;;;;;;;12.46;54.62;96560.97;10364589;28;20124;-51
2024/01/18 06:52:17;;;;;;;5.60;5.10;;;;;;;12.23;54.73;96512.19;10364825;28;20114;-51
2024/01/18 06:57:16;;;;;;;5.88;5.32;;;;;;;12.60;55.06;96578.81;10364028;28;20029;-48
2024/01/18 07:02:14;;;;;;;8.65;5.88;;;;;;;12.57;54.75;96581.50;10364674;28;20873;-48
2024/01/18 07:07:13;;;;;;;8.88;6.50;;;;;;;12.49;55.16;96582.56;10363107;28;20056;-50
2024/01/18 07:12:12;;;;;;;6.85;5.35;;;;;;;12.24;55.03;96522.53;10364331;28;20039;-49
2024/01/18 07:17:12;;;;;;;11.77;5.78;;;;;;;12.47;55.22;96550.53;10363583;28;20021;-52
2024/01/18 07:22:10;;;;;;;;;;;;;;;12.57;55.51;96576.31;10363149;28;20080;-48
2024/01/18 07:27:09;;;;;;;5.93;5.10;;;;;;;12.67;55.59;96557.78;10361328;28;19916;-47
2024/01/18 07:32:08;;;;;;;;;;;;;;;12.65;55.87;96621.16;10361840;28;20048;-49
2024/01/18 07:37:08;;;;;;;6.95;6.25;;;;;;;12.42;55.89;96606.22;10362715;28;19955;-49
2024/01/18 07:42:08;;;;;;;6.00;5.28;;;;;;;12.24;56.23;96587.53;10362495;28;20072;-47
2024/01/18 07:47:09;;;;;;;6.07;5.50;;;;;;;12.11;57.09;96562.78;10360524;28;20128;-51
2024/01/18 07:52:09;;;;;;;6.20;5.10;;;;;;;12.44;57.29;96579.25;10357340;28;20128;-50
2024/01/18 07:57:08;;;;;;;5.88;5.38;;;;;;;12.51;57.21;96553.91;10353741;28;20120;-52
2024/01/18 08:02:07;;;;;;;;;;;;;;;12.42;57.15;96551.56;10360310;28;21053;-49
2024/01/18 08:07:06;;;;;;;6.72;5.80;;;;;;;12.27;57.17;96516.38;10356638;28;20752;-47
2024/01/18 08:12:06;;;;;;;7.18;6.05;;;;;;;12.13;57.12;96456.94;10361820;28;20462;-48
2024/01/18 08:17:05;;;;;;;6.43;5.47;;;;;;;12.58;56.62;96515.53;10359234;28;20049;-47
2024/01/18 08:22:04;;;;;;;5.78;5.03;;;;;;;12.70;56.88;96513.44;10359920;28;20075;-48
2024/01/18 08:27:03;;;;;;;7.45;5.78;;;;;;;12.97;55.91;96521.31;10359222;28;20132;-47
2024/01/18 08:32:03;;;;;;;;;;;;;;;13.08;55.89;96516.66;10358774;28;20056;-47
2024/01/18 08:37:03;;;;;;;6.95;6.10;;;;;;;13.20;55.55;96493.72;10359899;28;19958;-47
2024/01/18 08:42:02;;;;;;;12.90;6.07;;;;;;;13.40;54.48;96488.75;10358026;28;20072;-47
2024/01/18 08:47:01;;;;;;;;;;;;;;;13.51;54.21;96497.03;10358361;28;20139;-46
2024/01/18 08:52:00;;;;;;;6.10;5.50;;;;;;;13.73;53.23;96496.38;10358720;28;20321;-49
2024/01/18 08:56:59;;;;;;;11.05;6.43;;;;;;;13.52;52.48;96427.53;10364225;28;20021;-47
2024/01/18 09:01:58;;;;;;;8.95;6.50;;;;;;;14.04;52.42;96506.59;10360390;28;20033;-48
2024/01/18 09:06:57;;;;;;;7.07;5.90;;;;;;;14.04;52.29;96511.81;10360339;28;20124;-47
2024/01/18 09:11:57;;;;;;;6.07;5.55;;;;;;;13.94;51.30;96476.53;10361556;28;20664;-49
2024/01/18 09:16:56;;;;;;;7.30;5.70;;;;;;;13.95;51.21;96484.28;10359132;28;20053;-49
2024/01/18 09:21:55;;;;;;;7.30;6.60;;;;;;;14.07;50.83;96489.97;10356518;28;20107;-48
2024/01/18 09:26:54;;;;;;;5.95;5.38;;;;;;;13.65;51.17;96430.59;10359313;28;20021;-47
2024/01/18 09:31:56;;;;;;;;;;;;;;;14.18;51.31;96488.69;10360404;28;20057;-46
2024/01/18 09:36:55;;;;;;;7.60;5.85;;;;;;;14.15;50.90;96480.16;10360032;28;19956;-47
2024/01/18 09:41:54;;;;;;;7.10;5.55;;;;;;;14.34;50.65;96504.66;10363822;28;20025;-48
2024/01/18 09:46:54;;;;;;;15.07;9.15;;;;;;;14.50;50.16;96496.25;10364590;28;20120;-46
2024/01/18 09:51:57;;;;;;;9.38;7.57;;;;;;;14.67;49.61;96477.38;10365364;28;20105;-49
2024/01/18 09:57:00;;;;;;;6.45;5.70;;;;;;;14.67;48.94;96441.66;10335196;28;20895;-48
2024/01/18 10:02:01;;;;;;;7.88;6.03;;;;;;;14.95;48.51;96457.16;10334761;28;20120;-48
2024/01/18 10:07:00;;;;;;;7.35;6.60;;;;;;;15.21;48.36;96448.28;10334195;28;20402;-48
2024/01/18 10:11:59;;;;;;;;;;;;;;;15.44;47.45;96430.81;10336225;28;20391;-49
2024/01/18 10:16:58;;;;;;;7.20;6.47;;;;;;;15.68;47.18;96414.06;10342719;28;19924;-48
2024/01/18 10:21:57;;;;;;;;;;;;;;;15.99;47.07;96404.91;10336633;28;20029;-48
2024/01/18 10:27:03;;;;;;;7.57;6.88;;;;;;;16.26;46.53;96391.53;10334463;28;20021;-49
2024/01/18 10:32:04;;;;;;;10.48;6.95;;;;;;;15.91;45.65;96289.31;10335308;28;20768;-48
2024/01/18 10:37:06;;;;;;;7.20;6.50;;;;;;;16.54;44.91;96348.34;10330359;28;20617;-49
2024/01/18 10:42:10;;;;;;;8.82;6.45;;;;;;;16.67;44.99;96346.84;10331323;28;20474;-50
2024/01/18 10:47:10;;;;;;;6.18;5.68;;;;;;;16.83;44.52;96331.25;10341520;28;20505;-49
2024/01/18 10:52:11;;;;;;;9.73;6.20;;;;;;;16.65;44.38;96291.06;10359837;28;20064;-49
2024/01/18 10:57:10;;;;;;;7.97;6.60;;;;;;;16.83;44.42;96295.44;10354682;28;20099;-49
2024/01/18 11:02:10;;;;;;;6.57;5.88;;;;;;;17.21;43.88;96297.91;10349858;28;20207;-51
2024/01/18 11:07:10;;;;;;;6.97;6.38;;;;;;;17.25;43.40;96270.59;10352739;28;20108;-51
2024/01/18 11:12:13;;;;;;;6.55;5.95;;;;;;;17.21;43.26;96263.81;10349326;28;20123;-49
2024/01/18 11:17:15;;;;;;;14.98;13.55;;;;;;;16.99;43.80;96242.28;10337007;28;20135;-48
2024/01/18 11:22:23;;;;;;;9.02;7.28;;;;;;;16.69;43.87;96196.53;10344930;28;20131;-48
2024/01/18 11:27:24;;;;;;;7.43;6.68;;;;;;;16.56;43.79;96195.47;10344123;28;20124;-48
2024/01/18 11:32:23;;;;;;;7.07;6.47;;;;;;;16.83;43.52;96240.41;10329504;28;20037;-48
2024/01/18 11:37:24;;;;;;;7.32;6.60;;;;;;;16.68;43.79;96204.50;10326413;28;20048;-49
2024/01/18 11:42:28;;;;;;;6.97;6.28;;;;;;;17.31;43.12;96270.31;10328887;28;20459;-49
2024/01/18 11:47:29;;;;;;;7.05;6.55;;;;;;;17.19;43.01;96256.97;10340924;28;20132;-51
2024/01/18 11:52:31;;;;;;;7.45;6.75;;;;;;;16.93;42.55;96246.91;10336753;28;20133;-49
2024/01/18 11:57:32;;;;;;;7.55;6.85;;;;;;;16.81;42.44;96233.56;10339303;28;20105;-48
2024/01/18 12:02:31;;;;;;;6.95;6.30;;;;;;;17.09;42.79;96241.69;10353556;28;20483;-50
2024/01/18 12:07:32;;;;;;;7.20;6.60;;;;;;;17.05;42.74;96203.50;10344007;28;20574;-50
2024/01/18 12:12:31;;;;;;;6.93;6.30;;;;;;;17.25;43.30;96236.53;10354749;28;20072;-49
2024/01/18 12:17:30;;;;;;;7.45;6.70;;;;;;;16.75;43.30;96156.09;10356785;28;20108;-49
2024/01/18 12:22:30;;;;;;;6.88;6.25;;;;;;;17.22;43.59;96241.09;10352518;28;20157;-48
2024/01/18 12:27:29;;;;;;;9.05;7.07;;;;;;;17.05;44.03;96215.72;10354854;28;20148;-48
2024/01/18 12:32:29;;;;;;;7.95;7.25;;;;;;;15.78;43.67;96039.66;10349214;28;20163;-48
2024/01/18 12:37:29;;;;;;;7.03;6.05;;;;;;;16.74;44.03;96204.16;10329066;28;20041;-48
2024/01/18 12:42:30;;;;;;;8.93;7.18;;;;;;;16.61;44.37;96177.75;10327884;28;20059;-51
2024/01/18 12:47:29;;;;;;;8.75;7.03;;;;;;;16.32;44.76;96196.66;10332872;28;20115;-49
2024/01/18 12:52:32;;;;;;;8.95;7.85;;;;;;;16.32;44.63;96181.81;10350091;28;20127;-49
2024/01/18 12:57:31;;;;;;;8.10;7.28;;;;;;;16.40;44.85;96186.69;10349734;28;20116;-50
2024/01/18 13:02:29;;;;;;;;;;;;;;;16.30;45.00;96196.72;10354047;28;20061;-48
2024/01/18 13:07:29;;;;;;;9.73;8.73;;;;;;;16.26;45.08;96203.91;10350915;28;19963;-49
2024/01/18 13:12:29;;;;;;;10.55;9.48;;;;;;;16.24;44.96;96181.34;10355755;28;20633;-50
2024/01/18 13:17:28;;;;;;;8.63;7.78;;;;;;;15.44;44.99;96016.00;10360642;28;20104;-51
2024/01/18 13:22:27;;;;;;;;;;;;;;;16.65;44.44;96184.53;10359239;28;20053;-49
2024/01/18 13:27:26;;;;;;;12.73;9.33;;;;;;;17.09;43.82;96183.19;10359193;28;19916;-50
2024/01/18 13:32:25;;;;;;;9.20;8.05;;;;;;;17.23;42.85;96151.88;10363175;28;20145;-51
2024/01/18 13:37:24;;;;;;;12.98;7.80;;;;;;;17.33;42.55;96116.38;10354017;28;20029;-50
2024/01/18 13:42:22;;;;;;;;;;;;;;;17.98;41.23;96189.78;10339941;28;20036;-49
